sensor_id;sensor_type;location;lat;lon;timestamp;P1;durP1;ratioP1;P2;durP2;ratioP2
51272;SDS011;37345;59.828;30.328;2022-11-20T00:01:18;5.07;;;1.67;;
51272;SDS011;37345;59.828;30.328;2022-11-20T00:03:45;3.75;;;1.30;;
51272;SDS011;37345;59.828;30.328;2022-11-20T00:06:12;4.73;;;1.30;;
51272;SDS011;37345;59.828;30.328;2022-11-20T00:08:40;3.90;;;1.35;;
51272;SDS011;37345;59.828;30.328;2022-11-20T00:11:08;2.03;;;1.65;;
51272;SDS011;37345;59.828;30.328;2022-11-20T00:13:35;6.75;;;1.98;;
51272;SDS011;37345;59.828;30.328;2022-11-20T00:16:03;3.17;;;1.95;;
51272;SDS011;37345;59.828;30.328;2022-11-20T00:18:30;4.35;;;2.03;;
51272;SDS011;37345;59.828;30.328;2022-11-20T00:21:03;4.60;;;2.17;;
51272;SDS011;37345;59.828;30.328;2022-11-20T00:23:30;4.85;;;2.50;;
51272;SDS011;37345;59.828;30.328;2022-11-20T00:25:56;5.35;;;2.60;;
51272;SDS011;37345;59.828;30.328;2022-11-20T00:28:26;4.28;;;2.28;;
51272;SDS011;37345;59.828;30.328;2022-11-20T00:31:28;5.20;;;2.50;;
51272;SDS011;37345;59.828;30.328;2022-11-20T00:33:47;4.07;;;2.00;;
51272;SDS011;37345;59.828;30.328;2022-11-20T00:36:17;2.53;;;1.58;;
51272;SDS011;37345;59.828;30.328;2022-11-20T00:38:51;3.92;;;1.80;;
51272;SDS011;37345;59.828;30.328;2022-11-20T00:41:18;3.00;;;2.00;;
51272;SDS011;37345;59.828;30.328;2022-11-20T00:43:44;3.40;;;1.90;;
51272;SDS011;37345;59.828;30.328;2022-11-20T00:46:12;5.35;;;2.05;;
51272;SDS011;37345;59.828;30.328;2022-11-20T00:48:39;3.25;;;1.73;;
51272;SDS011;37345;59.828;30.328;2022-11-20T00:51:06;3.30;;;1.77;;
51272;SDS011;37345;59.828;30.328;2022-11-20T00:53:32;6.15;;;2.17;;
51272;SDS011;37345;59.828;30.328;2022-11-20T00:55:59;5.38;;;2.00;;
51272;SDS011;37345;59.828;30.328;2022-11-20T00:58:31;6.57;;;2.78;;
51272;SDS011;37345;59.828;30.328;2022-11-20T01:01:02;6.78;;;2.70;;
51272;SDS011;37345;59.828;30.328;2022-11-20T01:03:31;6.85;;;2.70;;
51272;SDS011;37345;59.828;30.328;2022-11-20T01:06:01;3.92;;;2.17;;
51272;SDS011;37345;59.828;30.328;2022-11-20T01:08:29;3.03;;;1.73;;
51272;SDS011;37345;59.828;30.328;2022-11-20T01:11:03;3.95;;;1.95;;
51272;SDS011;37345;59.828;30.328;2022-11-20T01:13:30;2.90;;;1.55;;
51272;SDS011;37345;59.828;30.328;2022-11-20T01:18:32;3.25;;;1.60;;
51272;SDS011;37345;59.828;30.328;2022-11-20T01:21:03;3.85;;;2.10;;
51272;SDS011;37345;59.828;30.328;2022-11-20T01:23:40;2.80;;;1.75;;
51272;SDS011;37345;59.828;30.328;2022-11-20T01:26:08;5.85;;;2.10;;
51272;SDS011;37345;59.828;30.328;2022-11-20T01:28:36;6.38;;;2.85;;
51272;SDS011;37345;59.828;30.328;2022-11-20T01:31:10;6.53;;;2.90;;
51272;SDS011;37345;59.828;30.328;2022-11-20T01:33:38;5.18;;;2.05;;
51272;SDS011;37345;59.828;30.328;2022-11-20T01:36:06;3.55;;;1.45;;
51272;SDS011;37345;59.828;30.328;2022-11-20T01:38:36;8.10;;;3.05;;
51272;SDS011;37345;59.828;30.328;2022-11-20T01:41:07;4.18;;;1.90;;
51272;SDS011;37345;59.828;30.328;2022-11-20T01:44:03;4.75;;;2.05;;
51272;SDS011;37345;59.828;30.328;2022-11-20T01:46:31;2.10;;;1.27;;
51272;SDS011;37345;59.828;30.328;2022-11-20T01:49:02;3.83;;;1.80;;
51272;SDS011;37345;59.828;30.328;2022-11-20T01:54:17;2.92;;;1.80;;
51272;SDS011;37345;59.828;30.328;2022-11-20T01:56:51;3.72;;;1.80;;
51272;SDS011;37345;59.828;30.328;2022-11-20T01:59:21;3.05;;;1.85;;
51272;SDS011;37345;59.828;30.328;2022-11-20T02:01:49;2.22;;;1.45;;
51272;SDS011;37345;59.828;30.328;2022-11-20T02:04:15;4.53;;;2.15;;
51272;SDS011;37345;59.828;30.328;2022-11-20T02:06:46;3.90;;;2.30;;
51272;SDS011;37345;59.828;30.328;2022-11-20T02:09:24;5.78;;;2.60;;
51272;SDS011;37345;59.828;30.328;2022-11-20T02:11:51;8.50;;;3.07;;
51272;SDS011;37345;59.828;30.328;2022-11-20T02:14:17;6.07;;;2.17;;
51272;SDS011;37345;59.828;30.328;2022-11-20T02:16:47;4.13;;;1.70;;
51272;SDS011;37345;59.828;30.328;2022-11-20T02:19:31;7.43;;;3.03;;
51272;SDS011;37345;59.828;30.328;2022-11-20T02:25:02;3.55;;;1.80;;
51272;SDS011;37345;59.828;30.328;2022-11-20T02:27:29;2.65;;;1.65;;
51272;SDS011;37345;59.828;30.328;2022-11-20T02:30:00;4.00;;;2.13;;
51272;SDS011;37345;59.828;30.328;2022-11-20T02:32:30;5.73;;;2.73;;
51272;SDS011;37345;59.828;30.328;2022-11-20T02:34:58;5.45;;;2.22;;
51272;SDS011;37345;59.828;30.328;2022-11-20T02:37:32;7.93;;;2.33;;
51272;SDS011;37345;59.828;30.328;2022-11-20T02:40:02;6.40;;;2.65;;
51272;SDS011;37345;59.828;30.328;2022-11-20T02:42:28;4.53;;;2.47;;
51272;SDS011;37345;59.828;30.328;2022-11-20T02:44:54;3.87;;;2.40;;
51272;SDS011;37345;59.828;30.328;2022-11-20T02:47:20;9.32;;;3.85;;
51272;SDS011;37345;59.828;30.328;2022-11-20T02:49:46;12.43;;;4.07;;
51272;SDS011;37345;59.828;30.328;2022-11-20T02:52:12;7.57;;;3.00;;
51272;SDS011;37345;59.828;30.328;2022-11-20T02:54:38;8.02;;;3.47;;
51272;SDS011;37345;59.828;30.328;2022-11-20T02:57:04;7.05;;;2.55;;
51272;SDS011;37345;59.828;30.328;2022-11-20T02:59:32;4.32;;;2.30;;
51272;SDS011;37345;59.828;30.328;2022-11-20T03:01:58;4.63;;;2.55;;
51272;SDS011;37345;59.828;30.328;2022-11-20T03:04:24;9.38;;;3.10;;
51272;SDS011;37345;59.828;30.328;2022-11-20T03:06:50;4.40;;;2.37;;
51272;SDS011;37345;59.828;30.328;2022-11-20T03:09:17;5.32;;;2.53;;
51272;SDS011;37345;59.828;30.328;2022-11-20T03:11:42;8.15;;;2.95;;
51272;SDS011;37345;59.828;30.328;2022-11-20T03:14:08;7.95;;;2.85;;
51272;SDS011;37345;59.828;30.328;2022-11-20T03:16:34;6.45;;;2.70;;
51272;SDS011;37345;59.828;30.328;2022-11-20T03:19:00;4.93;;;2.22;;
51272;SDS011;37345;59.828;30.328;2022-11-20T03:21:26;5.57;;;2.40;;
51272;SDS011;37345;59.828;30.328;2022-11-20T03:23:53;5.32;;;2.40;;
51272;SDS011;37345;59.828;30.328;2022-11-20T03:26:21;3.13;;;1.95;;
51272;SDS011;37345;59.828;30.328;2022-11-20T03:28:55;3.72;;;2.00;;
51272;SDS011;37345;59.828;30.328;2022-11-20T03:31:32;4.15;;;2.00;;
51272;SDS011;37345;59.828;30.328;2022-11-20T03:34:01;3.80;;;2.20;;
51272;SDS011;37345;59.828;30.328;2022-11-20T03:36:28;4.00;;;2.15;;
51272;SDS011;37345;59.828;30.328;2022-11-20T03:38:57;4.75;;;2.58;;
51272;SDS011;37345;59.828;30.328;2022-11-20T03:41:24;3.22;;;2.20;;
51272;SDS011;37345;59.828;30.328;2022-11-20T03:43:58;2.40;;;1.85;;
51272;SDS011;37345;59.828;30.328;2022-11-20T03:46:25;3.80;;;1.95;;
51272;SDS011;37345;59.828;30.328;2022-11-20T03:48:53;2.45;;;1.50;;
51272;SDS011;37345;59.828;30.328;2022-11-20T03:53:59;3.05;;;1.90;;
51272;SDS011;37345;59.828;30.328;2022-11-20T03:56:55;3.10;;;2.17;;
51272;SDS011;37345;59.828;30.328;2022-11-20T03:59:23;2.47;;;1.80;;
51272;SDS011;37345;59.828;30.328;2022-11-20T04:01:49;2.95;;;1.95;;
51272;SDS011;37345;59.828;30.328;2022-11-20T04:04:16;3.57;;;1.97;;
51272;SDS011;37345;59.828;30.328;2022-11-20T04:06:42;4.65;;;2.20;;
51272;SDS011;37345;59.828;30.328;2022-11-20T04:09:08;4.85;;;2.25;;
51272;SDS011;37345;59.828;30.328;2022-11-20T04:11:35;3.80;;;2.30;;
51272;SDS011;37345;59.828;30.328;2022-11-20T04:14:04;5.25;;;1.98;;
51272;SDS011;37345;59.828;30.328;2022-11-20T04:16:32;4.10;;;2.30;;
51272;SDS011;37345;59.828;30.328;2022-11-20T04:19:04;4.38;;;2.60;;
51272;SDS011;37345;59.828;30.328;2022-11-20T04:21:35;3.00;;;2.35;;
51272;SDS011;37345;59.828;30.328;2022-11-20T04:24:01;11.35;;;4.35;;
51272;SDS011;37345;59.828;30.328;2022-11-20T04:26:27;14.70;;;5.47;;
51272;SDS011;37345;59.828;30.328;2022-11-20T04:28:54;9.70;;;4.35;;
51272;SDS011;37345;59.828;30.328;2022-11-20T04:31:21;9.05;;;3.67;;
51272;SDS011;37345;59.828;30.328;2022-11-20T04:33:49;12.50;;;4.90;;
51272;SDS011;37345;59.828;30.328;2022-11-20T04:36:16;11.63;;;5.53;;
51272;SDS011;37345;59.828;30.328;2022-11-20T04:38:44;8.63;;;4.07;;
51272;SDS011;37345;59.828;30.328;2022-11-20T04:41:18;10.45;;;4.18;;
51272;SDS011;37345;59.828;30.328;2022-11-20T04:43:52;12.30;;;4.82;;
51272;SDS011;37345;59.828;30.328;2022-11-20T04:46:24;14.10;;;5.88;;
51272;SDS011;37345;59.828;30.328;2022-11-20T04:48:51;9.75;;;4.38;;
51272;SDS011;37345;59.828;30.328;2022-11-20T04:51:17;7.70;;;4.05;;
51272;SDS011;37345;59.828;30.328;2022-11-20T04:53:43;5.78;;;3.58;;
51272;SDS011;37345;59.828;30.328;2022-11-20T04:56:09;6.83;;;3.57;;
51272;SDS011;37345;59.828;30.328;2022-11-20T04:58:37;6.27;;;4.00;;
51272;SDS011;37345;59.828;30.328;2022-11-20T05:01:04;9.35;;;4.38;;
51272;SDS011;37345;59.828;30.328;2022-11-20T05:03:44;13.23;;;4.65;;
51272;SDS011;37345;59.828;30.328;2022-11-20T05:06:14;7.95;;;3.88;;
51272;SDS011;37345;59.828;30.328;2022-11-20T05:08:41;8.77;;;3.83;;
51272;SDS011;37345;59.828;30.328;2022-11-20T05:11:11;7.05;;;4.10;;
51272;SDS011;37345;59.828;30.328;2022-11-20T05:13:39;7.75;;;4.50;;
51272;SDS011;37345;59.828;30.328;2022-11-20T05:16:06;6.22;;;3.95;;
51272;SDS011;37345;59.828;30.328;2022-11-20T05:18:34;7.85;;;4.25;;
51272;SDS011;37345;59.828;30.328;2022-11-20T05:21:01;7.75;;;3.58;;
51272;SDS011;37345;59.828;30.328;2022-11-20T05:23:28;7.38;;;3.58;;
51272;SDS011;37345;59.828;30.328;2022-11-20T05:25:55;10.75;;;4.47;;
51272;SDS011;37345;59.828;30.328;2022-11-20T05:28:22;10.32;;;5.00;;
51272;SDS011;37345;59.828;30.328;2022-11-20T05:30:49;11.48;;;5.32;;
51272;SDS011;37345;59.828;30.328;2022-11-20T05:33:15;8.57;;;4.00;;
51272;SDS011;37345;59.828;30.328;2022-11-20T05:35:49;7.13;;;3.70;;
51272;SDS011;37345;59.828;30.328;2022-11-20T05:38:15;7.50;;;3.97;;
51272;SDS011;37345;59.828;30.328;2022-11-20T05:40:41;7.30;;;3.90;;
51272;SDS011;37345;59.828;30.328;2022-11-20T05:43:07;6.55;;;3.28;;
51272;SDS011;37345;59.828;30.328;2022-11-20T05:45:33;5.93;;;3.20;;
51272;SDS011;37345;59.828;30.328;2022-11-20T05:47:59;6.97;;;3.25;;
51272;SDS011;37345;59.828;30.328;2022-11-20T05:50:26;5.50;;;3.75;;
51272;SDS011;37345;59.828;30.328;2022-11-20T05:52:52;6.88;;;3.60;;
51272;SDS011;37345;59.828;30.328;2022-11-20T05:55:19;4.70;;;3.30;;
51272;SDS011;37345;59.828;30.328;2022-11-20T05:57:47;7.13;;;3.42;;
51272;SDS011;37345;59.828;30.328;2022-11-20T06:00:13;5.47;;;3.30;;
51272;SDS011;37345;59.828;30.328;2022-11-20T06:02:39;7.00;;;4.38;;
51272;SDS011;37345;59.828;30.328;2022-11-20T06:05:05;6.55;;;3.95;;
51272;SDS011;37345;59.828;30.328;2022-11-20T06:07:32;8.25;;;4.03;;
51272;SDS011;37345;59.828;30.328;2022-11-20T06:09:57;8.55;;;4.40;;
51272;SDS011;37345;59.828;30.328;2022-11-20T06:12:23;7.73;;;4.00;;
51272;SDS011;37345;59.828;30.328;2022-11-20T06:14:49;8.50;;;4.15;;
51272;SDS011;37345;59.828;30.328;2022-11-20T06:17:17;11.48;;;5.53;;
51272;SDS011;37345;59.828;30.328;2022-11-20T06:19:43;11.45;;;3.95;;
51272;SDS011;37345;59.828;30.328;2022-11-20T06:22:09;10.73;;;3.88;;
51272;SDS011;37345;59.828;30.328;2022-11-20T06:24:35;8.13;;;4.15;;
51272;SDS011;37345;59.828;30.328;2022-11-20T06:27:01;14.02;;;4.68;;
51272;SDS011;37345;59.828;30.328;2022-11-20T06:29:27;11.57;;;4.83;;
51272;SDS011;37345;59.828;30.328;2022-11-20T06:31:54;19.80;;;4.63;;
51272;SDS011;37345;59.828;30.328;2022-11-20T06:34:19;12.82;;;4.45;;
51272;SDS011;37345;59.828;30.328;2022-11-20T06:36:45;10.15;;;3.95;;
51272;SDS011;37345;59.828;30.328;2022-11-20T06:39:11;10.57;;;3.65;;
51272;SDS011;37345;59.828;30.328;2022-11-20T06:41:37;15.10;;;4.45;;
51272;SDS011;37345;59.828;30.328;2022-11-20T06:44:04;14.63;;;4.67;;
51272;SDS011;37345;59.828;30.328;2022-11-20T06:46:30;14.57;;;4.45;;
51272;SDS011;37345;59.828;30.328;2022-11-20T06:48:56;13.80;;;4.60;;
51272;SDS011;37345;59.828;30.328;2022-11-20T06:51:26;9.65;;;4.22;;
51272;SDS011;37345;59.828;30.328;2022-11-20T06:53:52;12.02;;;3.80;;
51272;SDS011;37345;59.828;30.328;2022-11-20T06:56:18;9.40;;;3.90;;
51272;SDS011;37345;59.828;30.328;2022-11-20T06:58:44;12.43;;;3.70;;
51272;SDS011;37345;59.828;30.328;2022-11-20T07:01:11;12.30;;;4.18;;
51272;SDS011;37345;59.828;30.328;2022-11-20T07:03:40;9.63;;;3.63;;
51272;SDS011;37345;59.828;30.328;2022-11-20T07:06:06;10.32;;;3.47;;
51272;SDS011;37345;59.828;30.328;2022-11-20T07:08:33;11.48;;;4.18;;
51272;SDS011;37345;59.828;30.328;2022-11-20T07:11:03;14.23;;;3.72;;
51272;SDS011;37345;59.828;30.328;2022-11-20T07:13:34;10.52;;;3.58;;
51272;SDS011;37345;59.828;30.328;2022-11-20T07:16:01;10.10;;;4.15;;
51272;SDS011;37345;59.828;30.328;2022-11-20T07:18:28;11.13;;;3.75;;
51272;SDS011;37345;59.828;30.328;2022-11-20T07:20:54;10.95;;;3.78;;
51272;SDS011;37345;59.828;30.328;2022-11-20T07:23:20;7.07;;;3.75;;
51272;SDS011;37345;59.828;30.328;2022-11-20T07:25:45;7.10;;;3.28;;
51272;SDS011;37345;59.828;30.328;2022-11-20T07:28:11;12.93;;;4.07;;
51272;SDS011;37345;59.828;30.328;2022-11-20T07:30:37;7.68;;;4.13;;
51272;SDS011;37345;59.828;30.328;2022-11-20T07:33:03;6.47;;;3.30;;
51272;SDS011;37345;59.828;30.328;2022-11-20T07:35:29;6.07;;;3.03;;
51272;SDS011;37345;59.828;30.328;2022-11-20T07:37:55;7.43;;;3.70;;
51272;SDS011;37345;59.828;30.328;2022-11-20T07:40:22;7.78;;;3.25;;
51272;SDS011;37345;59.828;30.328;2022-11-20T07:42:48;7.07;;;3.60;;
51272;SDS011;37345;59.828;30.328;2022-11-20T07:45:15;7.70;;;4.18;;
51272;SDS011;37345;59.828;30.328;2022-11-20T07:47:42;8.27;;;4.05;;
51272;SDS011;37345;59.828;30.328;2022-11-20T07:50:08;9.32;;;3.92;;
51272;SDS011;37345;59.828;30.328;2022-11-20T07:52:34;8.63;;;4.20;;
51272;SDS011;37345;59.828;30.328;2022-11-20T07:55:00;8.52;;;4.22;;
51272;SDS011;37345;59.828;30.328;2022-11-20T07:57:26;7.47;;;4.13;;
51272;SDS011;37345;59.828;30.328;2022-11-20T07:59:52;7.40;;;4.05;;
51272;SDS011;37345;59.828;30.328;2022-11-20T08:02:17;7.30;;;3.93;;
51272;SDS011;37345;59.828;30.328;2022-11-20T08:04:43;6.07;;;3.88;;
51272;SDS011;37345;59.828;30.328;2022-11-20T08:07:09;6.82;;;4.15;;
51272;SDS011;37345;59.828;30.328;2022-11-20T08:09:38;7.85;;;4.28;;
51272;SDS011;37345;59.828;30.328;2022-11-20T08:12:04;8.30;;;4.57;;
51272;SDS011;37345;59.828;30.328;2022-11-20T08:14:48;8.43;;;4.63;;
51272;SDS011;37345;59.828;30.328;2022-11-20T08:17:14;8.35;;;4.40;;
51272;SDS011;37345;59.828;30.328;2022-11-20T08:19:40;11.02;;;5.10;;
51272;SDS011;37345;59.828;30.328;2022-11-20T08:22:05;10.80;;;5.25;;
51272;SDS011;37345;59.828;30.328;2022-11-20T08:24:31;9.17;;;4.90;;
51272;SDS011;37345;59.828;30.328;2022-11-20T08:26:58;9.20;;;4.40;;
51272;SDS011;37345;59.828;30.328;2022-11-20T08:29:25;8.18;;;4.65;;
51272;SDS011;37345;59.828;30.328;2022-11-20T08:31:51;8.82;;;3.97;;
51272;SDS011;37345;59.828;30.328;2022-11-20T08:34:26;7.20;;;3.88;;
51272;SDS011;37345;59.828;30.328;2022-11-20T08:36:54;7.80;;;4.70;;
51272;SDS011;37345;59.828;30.328;2022-11-20T08:39:20;9.85;;;4.75;;
51272;SDS011;37345;59.828;30.328;2022-11-20T08:41:46;8.13;;;4.33;;
51272;SDS011;37345;59.828;30.328;2022-11-20T08:44:12;8.10;;;4.40;;
51272;SDS011;37345;59.828;30.328;2022-11-20T08:46:40;10.05;;;4.95;;
51272;SDS011;37345;59.828;30.328;2022-11-20T08:49:11;7.97;;;4.63;;
51272;SDS011;37345;59.828;30.328;2022-11-20T08:51:38;10.35;;;5.40;;
51272;SDS011;37345;59.828;30.328;2022-11-20T08:54:05;9.48;;;4.45;;
51272;SDS011;37345;59.828;30.328;2022-11-20T08:56:37;9.43;;;4.28;;
51272;SDS011;37345;59.828;30.328;2022-11-20T08:59:03;11.15;;;5.03;;
51272;SDS011;37345;59.828;30.328;2022-11-20T09:01:29;7.05;;;3.78;;
51272;SDS011;37345;59.828;30.328;2022-11-20T09:03:55;9.40;;;4.47;;
51272;SDS011;37345;59.828;30.328;2022-11-20T09:06:24;6.20;;;3.90;;
51272;SDS011;37345;59.828;30.328;2022-11-20T09:08:53;6.97;;;4.03;;
51272;SDS011;37345;59.828;30.328;2022-11-20T09:11:19;8.05;;;3.97;;
51272;SDS011;37345;59.828;30.328;2022-11-20T09:13:45;9.93;;;4.17;;
51272;SDS011;37345;59.828;30.328;2022-11-20T09:16:12;11.30;;;5.30;;
51272;SDS011;37345;59.828;30.328;2022-11-20T09:18:38;11.98;;;5.07;;
51272;SDS011;37345;59.828;30.328;2022-11-20T09:21:05;16.77;;;5.55;;
51272;SDS011;37345;59.828;30.328;2022-11-20T09:23:35;7.90;;;4.45;;
51272;SDS011;37345;59.828;30.328;2022-11-20T09:26:05;10.77;;;4.65;;
51272;SDS011;37345;59.828;30.328;2022-11-20T09:28:34;6.90;;;3.58;;
51272;SDS011;37345;59.828;30.328;2022-11-20T09:31:00;7.15;;;3.60;;
51272;SDS011;37345;59.828;30.328;2022-11-20T09:33:26;7.73;;;3.70;;
51272;SDS011;37345;59.828;30.328;2022-11-20T09:35:52;9.10;;;4.53;;
51272;SDS011;37345;59.828;30.328;2022-11-20T09:38:17;9.38;;;4.30;;
51272;SDS011;37345;59.828;30.328;2022-11-20T09:40:45;8.47;;;3.67;;
51272;SDS011;37345;59.828;30.328;2022-11-20T09:48:49;8.57;;;3.72;;
51272;SDS011;37345;59.828;30.328;2022-11-20T09:54:16;7.28;;;4.00;;
51272;SDS011;37345;59.828;30.328;2022-11-20T09:56:48;8.20;;;4.38;;
51272;SDS011;37345;59.828;30.328;2022-11-20T10:01:53;5.30;;;3.30;;
51272;SDS011;37345;59.828;30.328;2022-11-20T10:04:24;6.85;;;3.80;;
51272;SDS011;37345;59.828;30.328;2022-11-20T10:09:25;7.30;;;3.53;;
51272;SDS011;37345;59.828;30.328;2022-11-20T10:14:26;5.70;;;3.30;;
51272;SDS011;37345;59.828;30.328;2022-11-20T10:25:39;5.50;;;3.17;;
51272;SDS011;37345;59.828;30.328;2022-11-20T10:31:21;6.38;;;3.60;;
51272;SDS011;37345;59.828;30.328;2022-11-20T10:34:23;7.85;;;3.70;;
51272;SDS011;37345;59.828;30.328;2022-11-20T10:37:00;6.32;;;3.55;;
51272;SDS011;37345;59.828;30.328;2022-11-20T10:42:27;5.78;;;3.47;;
51272;SDS011;37345;59.828;30.328;2022-11-20T10:50:40;6.17;;;3.57;;
51272;SDS011;37345;59.828;30.328;2022-11-20T10:53:31;7.20;;;3.83;;
51272;SDS011;37345;59.828;30.328;2022-11-20T10:56:03;11.20;;;5.45;;
51272;SDS011;37345;59.828;30.328;2022-11-20T11:01:42;5.20;;;3.35;;
51272;SDS011;37345;59.828;30.328;2022-11-20T11:07:16;4.05;;;2.72;;
51272;SDS011;37345;59.828;30.328;2022-11-20T11:09:55;6.20;;;3.80;;
51272;SDS011;37345;59.828;30.328;2022-11-20T11:12:31;5.10;;;3.50;;
51272;SDS011;37345;59.828;30.328;2022-11-20T11:14:57;8.80;;;3.45;;
51272;SDS011;37345;59.828;30.328;2022-11-20T11:17:30;5.70;;;3.30;;
51272;SDS011;37345;59.828;30.328;2022-11-20T11:20:01;5.07;;;3.05;;
51272;SDS011;37345;59.828;30.328;2022-11-20T11:22:34;6.70;;;3.83;;
51272;SDS011;37345;59.828;30.328;2022-11-20T11:25:25;8.98;;;4.07;;
51272;SDS011;37345;59.828;30.328;2022-11-20T11:27:53;5.43;;;3.53;;
51272;SDS011;37345;59.828;30.328;2022-11-20T11:30:21;7.05;;;3.97;;
51272;SDS011;37345;59.828;30.328;2022-11-20T11:33:10;8.45;;;3.90;;
51272;SDS011;37345;59.828;30.328;2022-11-20T11:35:55;7.10;;;4.10;;
51272;SDS011;37345;59.828;30.328;2022-11-20T11:38:30;6.30;;;3.97;;
51272;SDS011;37345;59.828;30.328;2022-11-20T11:41:03;6.23;;;3.87;;
51272;SDS011;37345;59.828;30.328;2022-11-20T11:43:35;7.10;;;3.90;;
51272;SDS011;37345;59.828;30.328;2022-11-20T11:48:57;8.50;;;4.07;;
51272;SDS011;37345;59.828;30.328;2022-11-20T11:54:26;6.18;;;3.63;;
51272;SDS011;37345;59.828;30.328;2022-11-20T11:56:54;7.60;;;4.03;;
51272;SDS011;37345;59.828;30.328;2022-11-20T11:59:25;6.28;;;4.00;;
51272;SDS011;37345;59.828;30.328;2022-11-20T12:01:59;8.60;;;3.88;;
51272;SDS011;37345;59.828;30.328;2022-11-20T12:07:03;8.68;;;4.72;;
51272;SDS011;37345;59.828;30.328;2022-11-20T12:09:35;9.05;;;4.28;;
51272;SDS011;37345;59.828;30.328;2022-11-20T12:15:00;9.57;;;4.88;;
51272;SDS011;37345;59.828;30.328;2022-11-20T12:17:27;9.68;;;4.97;;
51272;SDS011;37345;59.828;30.328;2022-11-20T12:19:53;18.88;;;8.00;;
51272;SDS011;37345;59.828;30.328;2022-11-20T12:32:39;7.45;;;3.78;;
51272;SDS011;37345;59.828;30.328;2022-11-20T12:35:15;6.53;;;3.70;;
51272;SDS011;37345;59.828;30.328;2022-11-20T12:40:38;7.80;;;4.03;;
51272;SDS011;37345;59.828;30.328;2022-11-20T12:43:11;8.18;;;3.85;;
51272;SDS011;37345;59.828;30.328;2022-11-20T12:46:18;6.20;;;3.88;;
51272;SDS011;37345;59.828;30.328;2022-11-20T12:51:34;8.93;;;4.45;;
51272;SDS011;37345;59.828;30.328;2022-11-20T13:01:53;6.65;;;4.20;;
51272;SDS011;37345;59.828;30.328;2022-11-20T13:04:26;8.30;;;4.40;;
51272;SDS011;37345;59.828;30.328;2022-11-20T13:06:55;6.80;;;3.95;;
51272;SDS011;37345;59.828;30.328;2022-11-20T13:09:22;7.32;;;4.13;;
51272;SDS011;37345;59.828;30.328;2022-11-20T13:11:51;8.93;;;4.30;;
51272;SDS011;37345;59.828;30.328;2022-11-20T13:17:05;10.33;;;4.70;;
51272;SDS011;37345;59.828;30.328;2022-11-20T13:19:35;7.53;;;4.43;;
51272;SDS011;37345;59.828;30.328;2022-11-20T13:22:02;7.10;;;3.63;;
51272;SDS011;37345;59.828;30.328;2022-11-20T13:24:29;10.55;;;4.80;;
51272;SDS011;37345;59.828;30.328;2022-11-20T13:27:05;10.38;;;5.00;;
51272;SDS011;37345;59.828;30.328;2022-11-20T13:29:44;9.10;;;4.85;;
51272;SDS011;37345;59.828;30.328;2022-11-20T13:32:14;7.25;;;4.15;;
51272;SDS011;37345;59.828;30.328;2022-11-20T13:34:52;7.97;;;4.20;;
51272;SDS011;37345;59.828;30.328;2022-11-20T13:37:29;8.57;;;3.97;;
51272;SDS011;37345;59.828;30.328;2022-11-20T13:40:05;6.00;;;3.65;;
51272;SDS011;37345;59.828;30.328;2022-11-20T13:42:31;8.00;;;3.97;;
51272;SDS011;37345;59.828;30.328;2022-11-20T13:45:02;8.25;;;3.80;;
51272;SDS011;37345;59.828;30.328;2022-11-20T13:47:33;6.60;;;3.97;;
51272;SDS011;37345;59.828;30.328;2022-11-20T13:50:02;8.30;;;4.22;;
51272;SDS011;37345;59.828;30.328;2022-11-20T13:52:49;6.65;;;3.20;;
51272;SDS011;37345;59.828;30.328;2022-11-20T13:57:56;7.90;;;3.83;;
51272;SDS011;37345;59.828;30.328;2022-11-20T14:00:25;7.75;;;4.07;;
51272;SDS011;37345;59.828;30.328;2022-11-20T14:05:36;7.07;;;3.70;;
51272;SDS011;37345;59.828;30.328;2022-11-20T14:08:04;6.28;;;3.28;;
51272;SDS011;37345;59.828;30.328;2022-11-20T14:10:32;5.88;;;3.80;;
51272;SDS011;37345;59.828;30.328;2022-11-20T14:12:58;9.73;;;4.13;;
51272;SDS011;37345;59.828;30.328;2022-11-20T14:15:28;6.45;;;4.00;;
51272;SDS011;37345;59.828;30.328;2022-11-20T14:17:57;6.85;;;4.10;;
51272;SDS011;37345;59.828;30.328;2022-11-20T14:20:24;8.40;;;3.75;;
51272;SDS011;37345;59.828;30.328;2022-11-20T14:22:52;7.95;;;4.30;;
51272;SDS011;37345;59.828;30.328;2022-11-20T14:25:19;7.35;;;4.25;;
51272;SDS011;37345;59.828;30.328;2022-11-20T14:27:53;7.63;;;4.32;;
51272;SDS011;37345;59.828;30.328;2022-11-20T14:30:20;7.47;;;4.53;;
51272;SDS011;37345;59.828;30.328;2022-11-20T14:32:47;7.15;;;4.13;;
51272;SDS011;37345;59.828;30.328;2022-11-20T14:35:24;6.75;;;4.10;;
51272;SDS011;37345;59.828;30.328;2022-11-20T14:37:51;6.83;;;3.93;;
51272;SDS011;37345;59.828;30.328;2022-11-20T14:40:36;9.45;;;4.07;;
51272;SDS011;37345;59.828;30.328;2022-11-20T14:43:14;9.10;;;3.97;;
51272;SDS011;37345;59.828;30.328;2022-11-20T14:45:42;8.13;;;4.32;;
51272;SDS011;37345;59.828;30.328;2022-11-20T14:48:08;8.15;;;4.10;;
51272;SDS011;37345;59.828;30.328;2022-11-20T14:50:35;9.30;;;5.07;;
51272;SDS011;37345;59.828;30.328;2022-11-20T14:53:01;8.05;;;4.38;;
51272;SDS011;37345;59.828;30.328;2022-11-20T14:55:32;6.78;;;3.72;;
51272;SDS011;37345;59.828;30.328;2022-11-20T14:58:02;7.68;;;4.28;;
51272;SDS011;37345;59.828;30.328;2022-11-20T15:00:29;9.30;;;4.20;;
51272;SDS011;37345;59.828;30.328;2022-11-20T15:02:55;6.55;;;3.95;;
51272;SDS011;37345;59.828;30.328;2022-11-20T15:05:24;7.97;;;4.43;;
51272;SDS011;37345;59.828;30.328;2022-11-20T15:08:12;6.00;;;3.95;;
51272;SDS011;37345;59.828;30.328;2022-11-20T15:10:37;5.95;;;3.88;;
51272;SDS011;37345;59.828;30.328;2022-11-20T15:13:04;8.32;;;4.00;;
51272;SDS011;37345;59.828;30.328;2022-11-20T15:18:10;6.57;;;4.07;;
51272;SDS011;37345;59.828;30.328;2022-11-20T15:20:37;8.95;;;4.32;;
51272;SDS011;37345;59.828;30.328;2022-11-20T15:23:08;7.05;;;4.20;;
51272;SDS011;37345;59.828;30.328;2022-11-20T15:25:35;7.90;;;4.00;;
51272;SDS011;37345;59.828;30.328;2022-11-20T15:28:04;6.47;;;3.88;;
51272;SDS011;37345;59.828;30.328;2022-11-20T15:30:30;8.20;;;4.20;;
51272;SDS011;37345;59.828;30.328;2022-11-20T15:32:56;6.03;;;4.27;;
51272;SDS011;37345;59.828;30.328;2022-11-20T15:35:22;7.40;;;4.20;;
51272;SDS011;37345;59.828;30.328;2022-11-20T15:37:49;8.10;;;3.93;;
51272;SDS011;37345;59.828;30.328;2022-11-20T15:40:15;7.90;;;4.40;;
51272;SDS011;37345;59.828;30.328;2022-11-20T15:42:41;6.13;;;3.95;;
51272;SDS011;37345;59.828;30.328;2022-11-20T15:45:27;6.63;;;3.90;;
51272;SDS011;37345;59.828;30.328;2022-11-20T15:47:54;7.63;;;3.92;;
51272;SDS011;37345;59.828;30.328;2022-11-20T15:50:20;7.32;;;3.80;;
51272;SDS011;37345;59.828;30.328;2022-11-20T15:52:49;9.10;;;4.03;;
51272;SDS011;37345;59.828;30.328;2022-11-20T15:55:15;4.82;;;2.92;;
51272;SDS011;37345;59.828;30.328;2022-11-20T15:57:41;7.27;;;4.00;;
51272;SDS011;37345;59.828;30.328;2022-11-20T16:00:07;8.40;;;3.37;;
51272;SDS011;37345;59.828;30.328;2022-11-20T16:02:33;7.20;;;4.10;;
51272;SDS011;37345;59.828;30.328;2022-11-20T16:04:59;6.70;;;3.90;;
51272;SDS011;37345;59.828;30.328;2022-11-20T16:07:25;5.83;;;3.03;;
51272;SDS011;37345;59.828;30.328;2022-11-20T16:09:51;7.15;;;3.85;;
51272;SDS011;37345;59.828;30.328;2022-11-20T16:12:16;8.18;;;4.20;;
51272;SDS011;37345;59.828;30.328;2022-11-20T16:15:02;8.15;;;3.88;;
51272;SDS011;37345;59.828;30.328;2022-11-20T16:17:47;8.10;;;4.32;;
51272;SDS011;37345;59.828;30.328;2022-11-20T16:20:13;7.90;;;4.43;;
51272;SDS011;37345;59.828;30.328;2022-11-20T16:22:38;6.97;;;4.25;;
51272;SDS011;37345;59.828;30.328;2022-11-20T16:25:04;7.50;;;4.53;;